Time;durP1;ratioP1;P1;durP2;ratioP2;P2;SDS_P1;SDS_P2;PMS_P1;PMS_P2;Temp;Humidity;BMP_temperature;BMP_pressure;BME280_temperature;BME280_humidity;BME280_pressure;Samples;Min_cycle;Max_cycle;Signal;HPM_P1;HPM_P2
2022/02/13 00:01:30;;;;;;;10.73;6.20;;;3.00;82.50;;;;;;4982581;28;20054;-74
2022/02/13 00:03:55;;;;;;;12.50;6.38;;;3.00;82.80;;;;;;4990684;28;20040;-75
2022/02/13 00:06:21;;;;;;;10.68;6.18;;;2.90;82.60;;;;;;4986473;28;20026;-76
2022/02/13 00:08:47;;;;;;;12.20;6.18;;;3.00;82.50;;;;;;4985892;28;20042;-73
2022/02/13 00:11:12;;;;;;;9.90;5.82;;;2.90;82.90;;;;;;4986692;28;20037;-74
2022/02/13 00:13:38;;;;;;;10.85;5.80;;;2.90;82.30;;;;;;4986962;28;20142;-74
2022/02/13 00:16:04;;;;;;;11.10;6.55;;;3.00;82.50;;;;;;4989987;28;20031;-74
2022/02/13 00:18:30;;;;;;;11.15;6.20;;;3.00;82.50;;;;;;4982309;28;20394;-75
2022/02/13 00:20:55;;;;;;;12.77;5.95;;;3.10;82.10;;;;;;4984524;28;20038;-74
2022/02/13 00:23:21;;;;;;;9.23;6.00;;;3.10;81.60;;;;;;4984702;28;20065;-74
2022/02/13 00:25:47;;;;;;;13.20;6.32;;;3.00;82.00;;;;;;4983856;28;20453;-73
2022/02/13 00:28:13;;;;;;;10.98;5.95;;;3.10;81.70;;;;;;4984726;28;20401;-74
2022/02/13 00:30:42;;;;;;;10.57;5.93;;;3.10;81.90;;;;;;4985230;28;20041;-75
2022/02/13 00:33:07;;;;;;;13.70;5.82;;;3.10;81.50;;;;;;4985092;28;20685;-75
2022/02/13 00:35:33;;;;;;;9.65;5.68;;;3.00;81.60;;;;;;4985917;28;20109;-75
2022/02/13 00:37:59;;;;;;;9.05;5.68;;;3.00;81.40;;;;;;4985938;28;20137;-75
2022/02/13 00:40:24;;;;;;;12.05;5.95;;;3.00;81.60;;;;;;4986304;28;20050;-74
2022/02/13 00:42:50;;;;;;;14.65;6.50;;;3.00;81.90;;;;;;4986292;28;20030;-75
2022/02/13 00:45:16;;;;;;;9.35;5.28;;;3.00;81.70;;;;;;4985880;28;20077;-75
2022/02/13 00:47:41;;;;;;;9.68;5.20;;;3.00;81.40;;;;;;4984675;28;20070;-75
2022/02/13 00:50:08;;;;;;;12.32;5.97;;;3.00;81.30;;;;;;4985943;28;20034;-75
2022/02/13 00:52:34;;;;;;;12.02;6.22;;;3.10;80.90;;;;;;4986392;28;20038;-75
2022/02/13 00:55:00;;;;;;;11.25;4.97;;;3.20;81.00;;;;;;4987038;28;20034;-75
2022/02/13 00:57:27;;;;;;;11.10;5.70;;;3.20;80.40;;;;;;4986343;28;20093;-74
2022/02/13 00:59:53;;;;;;;10.68;6.20;;;3.10;80.50;;;;;;4989952;28;20720;-74
2022/02/13 01:02:18;;;;;;;13.07;5.80;;;3.10;80.60;;;;;;4991728;28;20402;-74
2022/02/13 01:04:44;;;;;;;9.63;5.85;;;3.10;80.90;;;;;;4980234;28;20038;-75
2022/02/13 01:07:10;;;;;;;13.30;5.97;;;3.10;80.70;;;;;;4979149;28;20034;-75
2022/02/13 01:09:36;;;;;;;11.43;6.97;;;3.10;80.80;;;;;;4977759;28;20553;-75
2022/02/13 01:12:02;;;;;;;9.68;5.60;;;3.10;80.50;;;;;;4975987;28;20037;-74
2022/02/13 01:14:27;;;;;;;12.45;6.00;;;3.00;80.80;;;;;;5002852;28;20031;-74
2022/02/13 01:16:53;;;;;;;9.18;5.28;;;3.00;81.00;;;;;;4987151;28;20701;-75
2022/02/13 01:19:19;;;;;;;10.30;5.60;;;2.90;80.80;;;;;;4985336;28;20038;-74
2022/02/13 01:21:45;;;;;;;8.70;4.95;;;2.90;81.40;;;;;;4985308;28;20049;-75
2022/02/13 01:24:10;;;;;;;9.43;5.25;;;2.90;81.50;;;;;;4984931;28;20490;-74
2022/02/13 01:26:36;;;;;;;8.13;5.20;;;2.80;81.30;;;;;;4992505;28;20045;-75
2022/02/13 01:29:02;;;;;;;9.43;5.35;;;2.80;81.80;;;;;;5004834;28;20022;-75
2022/02/13 01:31:28;;;;;;;11.23;5.55;;;2.70;81.80;;;;;;4981924;28;20026;-75
2022/02/13 01:33:54;;;;;;;11.57;6.18;;;2.70;82.00;;;;;;4984961;28;20553;-75
2022/02/13 01:36:20;;;;;;;13.02;6.07;;;2.70;82.20;;;;;;4985349;28;20030;-74
2022/02/13 01:38:46;;;;;;;9.27;4.85;;;2.70;82.30;;;;;;4985212;28;20375;-75
2022/02/13 01:41:12;;;;;;;12.13;5.97;;;2.70;81.90;;;;;;4985519;28;20041;-74
2022/02/13 01:43:38;;;;;;;11.70;5.35;;;2.70;82.00;;;;;;4985084;28;20042;-74
2022/02/13 01:46:04;;;;;;;9.70;5.18;;;2.70;82.10;;;;;;4984470;28;20034;-75
2022/02/13 01:48:30;;;;;;;11.57;5.85;;;2.70;82.10;;;;;;4986427;28;20129;-75
2022/02/13 01:50:56;;;;;;;8.15;5.03;;;2.70;82.20;;;;;;4984880;28;20031;-74
2022/02/13 01:53:24;;;;;;;8.80;5.10;;;2.70;81.80;;;;;;4984820;28;20054;-74
2022/02/13 01:55:50;;;;;;;13.65;5.18;;;2.70;81.70;;;;;;4985511;28;20371;-74
2022/02/13 01:58:16;;;;;;;13.75;6.03;;;2.70;81.70;;;;;;4984519;28;20474;-74
2022/02/13 02:00:42;;;;;;;10.13;5.43;;;2.60;82.00;;;;;;4984968;28;20053;-74
2022/02/13 02:03:08;;;;;;;12.55;5.40;;;2.70;82.00;;;;;;4984356;28;20504;-74
2022/02/13 02:05:35;;;;;;;8.80;5.00;;;2.60;82.10;;;;;;4982644;28;20498;-75
2022/02/13 02:08:00;;;;;;;8.63;5.47;;;2.60;82.40;;;;;;4984220;28;20113;-74
2022/02/13 02:10:26;;;;;;;11.25;5.97;;;2.60;82.50;;;;;;4984150;28;20494;-74
2022/02/13 02:12:52;;;;;;;11.43;5.85;;;2.60;82.40;;;;;;4986871;28;20286;-74
2022/02/13 02:15:18;;;;;;;10.57;4.95;;;2.60;82.50;;;;;;4983974;28;20030;-74
2022/02/13 02:17:44;;;;;;;8.65;5.10;;;2.60;82.50;;;;;;4984392;28;20030;-75
2022/02/13 02:20:11;;;;;;;9.93;4.88;;;2.60;82.70;;;;;;4979902;28;20039;-75
2022/02/13 02:22:37;;;;;;;8.38;5.35;;;2.60;82.70;;;;;;4984814;28;20069;-74
2022/02/13 02:25:03;;;;;;;10.07;5.82;;;2.60;83.10;;;;;;4987111;28;20828;-75
2022/02/13 02:27:29;;;;;;;10.35;5.25;;;2.60;82.50;;;;;;4984062;28;20042;-74
2022/02/13 02:29:55;;;;;;;9.70;5.57;;;2.60;82.30;;;;;;4984457;28;20034;-74
2022/02/13 02:32:21;;;;;;;10.77;5.38;;;2.50;82.70;;;;;;4986703;28;20503;-75
2022/02/13 02:34:46;;;;;;;9.15;5.07;;;2.60;82.50;;;;;;4983988;28;20637;-75
2022/02/13 02:37:12;;;;;;;13.68;5.80;;;2.60;82.20;;;;;;4984111;28;20584;-74
2022/02/13 02:39:38;;;;;;;9.25;5.80;;;2.70;82.20;;;;;;4985369;28;20807;-74
2022/02/13 02:42:04;;;;;;;9.57;5.15;;;2.60;82.10;;;;;;4980331;28;20145;-74
2022/02/13 02:44:32;;;;;;;7.07;4.78;;;2.60;82.40;;;;;;4983399;28;20065;-75
2022/02/13 02:46:57;;;;;;;14.70;5.88;;;2.60;82.00;;;;;;4983754;28;20026;-75
2022/02/13 02:49:23;;;;;;;8.85;5.20;;;2.60;82.00;;;;;;4987594;28;20684;-75
2022/02/13 02:51:49;;;;;;;9.52;5.63;;;2.60;82.20;;;;;;4983914;28;20105;-75
2022/02/13 02:54:15;;;;;;;10.73;5.50;;;2.60;81.90;;;;;;4986730;28;20692;-74
2022/02/13 02:56:41;;;;;;;13.07;5.28;;;2.60;82.20;;;;;;4982963;28;20048;-75
2022/02/13 02:59:06;;;;;;;9.07;5.18;;;2.60;82.00;;;;;;4984126;28;20034;-74
2022/02/13 03:01:32;;;;;;;9.35;4.97;;;2.70;81.90;;;;;;4982934;28;20050;-75
2022/02/13 03:03:58;;;;;;;9.50;4.97;;;2.70;82.10;;;;;;4983197;28;20149;-74
2022/02/13 03:06:23;;;;;;;11.48;5.57;;;2.60;81.80;;;;;;4983466;28;20045;-75
2022/02/13 03:08:49;;;;;;;9.80;5.32;;;2.70;81.60;;;;;;4989371;28;20030;-74
2022/02/13 03:11:15;;;;;;;9.40;5.22;;;2.80;81.40;;;;;;4982149;28;20057;-75
2022/02/13 03:13:41;;;;;;;12.40;5.78;;;2.70;81.10;;;;;;4983983;28;20113;-75
2022/02/13 03:16:07;;;;;;;9.02;5.22;;;2.80;81.20;;;;;;4983115;28;20414;-74
2022/02/13 03:18:33;;;;;;;9.63;5.45;;;2.70;81.40;;;;;;4982899;28;20049;-75
2022/02/13 03:20:59;;;;;;;8.05;4.90;;;2.70;81.10;;;;;;4983044;28;20030;-74
2022/02/13 03:23:26;;;;;;;10.73;6.03;;;2.60;81.50;;;;;;4983118;28;20076;-74
2022/02/13 03:25:52;;;;;;;12.80;6.22;;;2.70;81.60;;;;;;4984000;28;20033;-74
2022/02/13 03:28:18;;;;;;;9.25;5.32;;;2.70;81.10;;;;;;4982336;28;20035;-75
2022/02/13 03:30:45;;;;;;;9.20;5.68;;;2.80;81.20;;;;;;4983306;28;20518;-75
2022/02/13 03:33:11;;;;;;;10.65;5.28;;;2.80;81.00;;;;;;4982870;28;20026;-75
2022/02/13 03:35:38;;;;;;;10.05;5.38;;;2.70;80.90;;;;;;4983182;28;20026;-75
2022/02/13 03:38:04;;;;;;;9.70;5.40;;;2.70;81.30;;;;;;4983441;28;20026;-74
2022/02/13 03:40:31;;;;;;;9.70;5.50;;;2.60;81.70;;;;;;4982964;28;20057;-75
2022/02/13 03:42:57;;;;;;;11.65;5.70;;;2.60;81.90;;;;;;4983431;28;20041;-75
2022/02/13 03:45:23;;;;;;;10.02;5.70;;;2.70;81.90;;;;;;4982719;28;20125;-75
2022/02/13 03:47:49;;;;;;;10.48;5.07;;;2.70;81.60;;;;;;4983132;28;20045;-74
2022/02/13 03:50:15;;;;;;;9.25;5.38;;;2.60;81.60;;;;;;4983331;28;20027;-75
2022/02/13 03:52:40;;;;;;;11.55;5.72;;;2.60;81.80;;;;;;4983931;28;20036;-75
2022/02/13 03:55:08;;;;;;;12.55;5.70;;;2.60;81.60;;;;;;4989591;28;20743;-74
2022/02/13 03:57:34;;;;;;;10.57;5.70;;;2.60;81.70;;;;;;4983014;28;20113;-74
2022/02/13 04:00:00;;;;;;;10.75;5.65;;;2.50;81.90;;;;;;4983909;28;20129;-75
2022/02/13 04:02:25;;;;;;;10.55;5.32;;;2.50;82.30;;;;;;4987121;28;20034;-75
2022/02/13 04:04:51;;;;;;;11.95;6.03;;;2.50;82.60;;;;;;4984894;28;20029;-75
2022/02/13 04:07:18;;;;;;;9.35;5.63;;;2.40;82.60;;;;;;4983247;28;20122;-74
2022/02/13 04:09:44;;;;;;;8.68;5.72;;;2.50;82.30;;;;;;4982614;28;20130;-75
2022/02/13 04:12:10;;;;;;;8.98;4.95;;;2.50;82.10;;;;;;4979655;28;20842;-74
2022/02/13 04:14:36;;;;;;;8.93;5.55;;;2.50;81.80;;;;;;4984506;28;20041;-74
2022/02/13 04:17:02;;;;;;;11.15;5.95;;;2.50;82.10;;;;;;4986905;28;20027;-74
2022/02/13 04:19:28;;;;;;;11.80;5.53;;;2.50;82.00;;;;;;4980913;28;20052;-74
2022/02/13 04:21:54;;;;;;;12.50;5.72;;;2.40;82.60;;;;;;4989525;28;20479;-74
2022/02/13 04:24:19;;;;;;;11.85;5.57;;;2.40;83.30;;;;;;4985631;28;20038;-74
2022/02/13 04:26:46;;;;;;;14.80;5.97;;;2.40;82.60;;;;;;4986700;28;20073;-74
2022/02/13 04:29:11;;;;;;;10.10;5.72;;;2.30;82.80;;;;;;4986489;28;20085;-74
2022/02/13 04:31:39;;;;;;;7.93;5.22;;;2.30;82.80;;;;;;4986677;28;20754;-75
2022/02/13 04:34:08;;;;;;;13.90;5.97;;;2.30;82.70;;;;;;4986324;28;20718;-74
2022/02/13 04:36:37;;;;;;;10.07;5.80;;;2.30;82.50;;;;;;4986427;28;20022;-74
2022/02/13 04:39:04;;;;;;;9.30;5.22;;;2.30;82.80;;;;;;4986246;28;20042;-75
2022/02/13 04:41:30;;;;;;;7.78;5.20;;;2.30;82.80;;;;;;4986587;28;20041;-74
2022/02/13 04:43:56;;;;;;;9.43;5.47;;;2.30;82.60;;;;;;4988094;28;20034;-75
2022/02/13 04:46:22;;;;;;;10.70;5.25;;;2.30;82.60;;;;;;4986127;28;20046;-74
2022/02/13 04:48:48;;;;;;;15.73;5.38;;;2.20;83.20;;;;;;4986052;28;20095;-75
2022/02/13 04:51:14;;;;;;;8.48;5.25;;;2.20;83.30;;;;;;4986435;28;20121;-75
2022/02/13 04:53:39;;;;;;;11.38;5.40;;;2.20;83.70;;;;;;4986497;28;20398;-74
2022/02/13 04:56:05;;;;;;;8.38;5.07;;;2.10;83.60;;;;;;4987431;28;20038;-74
2022/02/13 04:58:35;;;;;;;9.20;5.47;;;2.10;83.60;;;;;;4983841;28;20027;-75
2022/02/13 05:01:01;;;;;;;9.02;4.97;;;2.10;83.90;;;;;;4985896;28;20038;-75
2022/02/13 05:03:27;;;;;;;12.38;5.32;;;2.10;83.80;;;;;;4985588;28;20038;-74
2022/02/13 05:05:53;;;;;;;12.43;5.63;;;2.10;84.00;;;;;;4985094;28;20148;-75
2022/02/13 05:08:19;;;;;;;9.73;5.15;;;2.10;83.60;;;;;;4985538;28;20096;-75
2022/02/13 05:10:45;;;;;;;9.38;4.80;;;2.10;84.00;;;;;;4985530;28;20034;-74
2022/02/13 05:13:11;;;;;;;11.68;4.95;;;2.10;83.60;;;;;;4985594;28;20072;-75
2022/02/13 05:15:37;;;;;;;12.45;5.25;;;2.10;83.60;;;;;;4985098;28;20177;-75
2022/02/13 05:18:03;;;;;;;11.15;5.00;;;2.20;83.60;;;;;;4983573;28;20054;-75
2022/02/13 05:20:29;;;;;;;13.75;5.80;;;2.10;83.70;;;;;;4985180;28;20045;-74
2022/02/13 05:22:55;;;;;;;9.10;5.00;;;2.10;83.70;;;;;;4984136;28;20073;-74
2022/02/13 05:25:21;;;;;;;7.97;4.50;;;2.10;83.60;;;;;;4983554;28;20037;-74
2022/02/13 05:27:47;;;;;;;13.73;5.43;;;2.00;83.70;;;;;;4992124;28;20026;-74
2022/02/13 05:30:13;;;;;;;8.68;4.88;;;2.00;84.20;;;;;;4984605;28;20045;-75
2022/02/13 05:32:38;;;;;;;6.78;4.32;;;2.10;84.40;;;;;;4985017;28;20041;-74
2022/02/13 05:35:04;;;;;;;8.43;4.93;;;2.00;83.90;;;;;;4987699;28;20040;-74
2022/02/13 05:37:30;;;;;;;11.43;4.95;;;2.10;84.10;;;;;;4984572;28;20030;-75
2022/02/13 05:39:56;;;;;;;9.85;5.18;;;2.00;84.10;;;;;;4977669;28;20946;-74
2022/02/13 05:42:23;;;;;;;9.48;5.45;;;2.10;84.10;;;;;;4981018;28;20093;-75
2022/02/13 05:44:53;;;;;;;8.55;5.20;;;2.00;84.10;;;;;;4968115;28;20050;-73
2022/02/13 05:47:19;;;;;;;16.77;4.93;;;2.10;84.40;;;;;;4983139;28;20038;-74
2022/02/13 05:49:45;;;;;;;10.52;4.90;;;2.00;84.00;;;;;;4989573;28;20038;-74
2022/02/13 05:52:11;;;;;;;14.50;5.18;;;2.00;84.20;;;;;;4993613;28;20065;-73
2022/02/13 05:54:37;;;;;;;8.00;5.45;;;2.00;84.40;;;;;;4981419;28;20026;-75
2022/02/13 05:57:03;;;;;;;13.75;5.22;;;1.90;84.80;;;;;;4980834;28;20034;-74
2022/02/13 05:59:29;;;;;;;8.48;4.72;;;1.90;84.80;;;;;;4990397;28;20057;-74
2022/02/13 06:01:56;;;;;;;9.88;5.30;;;1.90;84.90;;;;;;4993292;28;20785;-74
2022/02/13 06:04:23;;;;;;;8.75;5.45;;;2.00;84.90;;;;;;4979061;28;20026;-72
2022/02/13 06:06:50;;;;;;;8.13;4.95;;;2.00;84.60;;;;;;4988937;28;20057;-71
2022/02/13 06:09:17;;;;;;;9.10;4.90;;;2.00;85.00;;;;;;4983325;28;20077;-79
2022/02/13 06:11:43;;;;;;;10.02;5.10;;;1.90;85.00;;;;;;4987712;28;20053;-72
2022/02/13 06:14:10;;;;;;;9.55;5.13;;;2.00;85.00;;;;;;4980681;28;20290;-74
2022/02/13 06:16:35;;;;;;;11.38;5.00;;;1.90;85.20;;;;;;4979779;28;20433;-73
2022/02/13 06:19:01;;;;;;;8.60;5.05;;;1.90;84.90;;;;;;4981158;28;20045;-74
2022/02/13 06:21:27;;;;;;;8.60;4.90;;;1.90;85.10;;;;;;4978621;28;20038;-74
2022/02/13 06:23:52;;;;;;;9.55;4.72;;;2.00;85.30;;;;;;4974932;28;20561;-75
2022/02/13 06:26:19;;;;;;;9.10;4.75;;;2.00;84.70;;;;;;4986008;28;20434;-78
2022/02/13 06:28:44;;;;;;;7.93;4.70;;;2.00;85.00;;;;;;4981977;28;20091;-74
2022/02/13 06:31:11;;;;;;;9.13;5.03;;;2.00;84.90;;;;;;4983693;28;20070;-75
2022/02/13 06:33:37;;;;;;;9.80;5.35;;;2.00;84.90;;;;;;4983348;28;20034;-75
2022/02/13 06:36:03;;;;;;;9.02;4.80;;;2.00;84.70;;;;;;4974998;28;20038;-75
2022/02/13 06:38:28;;;;;;;9.07;5.72;;;2.00;84.70;;;;;;4994052;28;20040;-74
2022/02/13 06:40:54;;;;;;;10.23;4.80;;;2.00;84.70;;;;;;4975658;28;20061;-74
2022/02/13 06:43:20;;;;;;;7.13;4.78;;;2.10;84.80;;;;;;4974681;28;20837;-73
2022/02/13 06:45:46;;;;;;;7.70;4.35;;;2.00;85.10;;;;;;4989704;28;20031;-74
2022/02/13 06:48:11;;;;;;;8.98;4.90;;;2.10;85.10;;;;;;4986869;28;20112;-74
2022/02/13 06:50:37;;;;;;;8.57;4.80;;;2.10;85.10;;;;;;4973733;28;20026;-74
2022/02/13 06:53:04;;;;;;;7.75;4.55;;;2.10;84.80;;;;;;4989266;28;20041;-74
2022/02/13 06:55:30;;;;;;;11.02;4.95;;;2.10;85.20;;;;;;4985786;28;20380;-74
2022/02/13 06:57:56;;;;;;;9.18;5.15;;;2.10;84.80;;;;;;4988336;28;20049;-76
2022/02/13 07:00:22;;;;;;;9.15;5.05;;;2.20;84.70;;;;;;4982052;28;20045;-75
2022/02/13 07:02:48;;;;;;;12.25;5.22;;;2.20;84.60;;;;;;4979093;28;20140;-75
2022/02/13 07:05:15;;;;;;;9.77;4.57;;;2.30;84.40;;;;;;4993609;28;20026;-76
2022/02/13 07:07:41;;;;;;;15.13;5.57;;;2.30;84.40;;;;;;4987393;28;20060;-75
2022/02/13 07:10:08;;;;;;;9.38;4.88;;;2.30;84.30;;;;;;4984610;28;20026;-75
2022/02/13 07:12:34;;;;;;;7.93;4.60;;;2.40;84.40;;;;;;4988292;28;20411;-74
2022/02/13 07:15:00;;;;;;;8.95;4.93;;;2.50;83.80;;;;;;4979449;28;20047;-75
2022/02/13 07:17:26;;;;;;;15.48;6.80;;;2.50;83.40;;;;;;4975616;28;20165;-75
2022/02/13 07:19:52;;;;;;;9.40;5.00;;;2.60;83.50;;;;;;4981271;28;20037;-74
2022/02/13 07:22:18;;;;;;;7.90;4.18;;;2.50;83.60;;;;;;4980820;28;20036;-74
2022/02/13 07:24:44;;;;;;;8.70;4.90;;;2.50;83.60;;;;;;4978647;28;20038;-73
2022/02/13 07:27:10;;;;;;;8.13;4.43;;;2.50;83.70;;;;;;4983339;28;20034;-73
2022/02/13 07:29:36;;;;;;;8.38;4.43;;;2.60;83.20;;;;;;4978677;28;20092;-74
2022/02/13 07:32:03;;;;;;;8.68;4.68;;;2.70;82.90;;;;;;4976160;28;20446;-70
2022/02/13 07:34:29;;;;;;;9.68;5.03;;;2.70;82.60;;;;;;4977189;28;20041;-74
2022/02/13 07:37:01;;;;;;;7.90;4.53;;;2.70;82.50;;;;;;4985018;28;20106;-75
2022/02/13 07:39:31;;;;;;;10.57;4.47;;;2.80;82.40;;;;;;4979614;28;20034;-75
2022/02/13 07:41:58;;;;;;;6.88;4.05;;;2.70;82.00;;;;;;4981338;28;20630;-75
2022/02/13 07:44:24;;;;;;;9.20;4.55;;;2.70;82.50;;;;;;4973225;28;20657;-74
2022/02/13 07:46:50;;;;;;;8.80;4.20;;;2.80;82.70;;;;;;4982669;28;20121;-74
2022/02/13 07:49:16;;;;;;;7.45;4.30;;;2.90;82.30;;;;;;4985689;28;20142;-75
2022/02/13 07:51:42;;;;;;;8.95;4.38;;;2.90;82.20;;;;;;4980994;28;20045;-74
2022/02/13 07:54:08;;;;;;;7.35;4.32;;;3.00;82.30;;;;;;4989613;28;20026;-75
2022/02/13 07:56:34;;;;;;;7.47;4.00;;;3.10;81.40;;;;;;4989491;28;20170;-75
2022/02/13 07:59:00;;;;;;;10.45;4.95;;;3.20;80.90;;;;;;4989613;28;20117;-74
2022/02/13 08:01:26;;;;;;;7.80;4.45;;;3.20;81.40;;;;;;4988034;28;20042;-74
2022/02/13 08:03:52;;;;;;;9.63;4.35;;;3.20;81.20;;;;;;4982315;28;20043;-71
2022/02/13 08:06:19;;;;;;;8.27;4.28;;;3.50;80.00;;;;;;4981288;28;20109;-74
2022/02/13 08:08:46;;;;;;;8.23;3.95;;;3.60;79.20;;;;;;4981801;28;20604;-71
2022/02/13 08:11:13;;;;;;;7.30;4.15;;;3.70;78.90;;;;;;4982252;28;20114;-74
2022/02/13 08:13:39;;;;;;;8.27;4.00;;;3.80;78.40;;;;;;4984212;28;20038;-74
2022/02/13 08:16:05;;;;;;;6.05;3.97;;;3.80;78.30;;;;;;4987650;28;20030;-74
2022/02/13 08:18:31;;;;;;;6.43;3.80;;;3.90;77.20;;;;;;4978413;28;20039;-72
2022/02/13 08:20:57;;;;;;;10.13;3.85;;;3.90;77.00;;;;;;4981715;28;20054;-74
2022/02/13 08:23:24;;;;;;;6.55;3.70;;;4.00;77.80;;;;;;4993434;28;20498;-73
2022/02/13 08:25:51;;;;;;;5.82;3.92;;;4.10;77.40;;;;;;4975372;28;20121;-74
2022/02/13 08:28:17;;;;;;;7.78;4.40;;;4.30;76.60;;;;;;4982703;28;20035;-73
2022/02/13 08:30:43;;;;;;;9.88;4.38;;;4.40;75.40;;;;;;4981339;28;20576;-74
2022/02/13 08:33:09;;;;;;;9.73;4.43;;;4.40;75.70;;;;;;4984808;28;20236;-74
2022/02/13 08:35:36;;;;;;;10.20;4.40;;;4.50;75.30;;;;;;4980952;28;20030;-74
2022/02/13 08:38:03;;;;;;;7.68;4.22;;;4.40;75.50;;;;;;4986407;28;20648;-74
2022/02/13 08:40:29;;;;;;;5.93;4.25;;;4.50;74.70;;;;;;4991579;28;20042;-75
2022/02/13 08:42:55;;;;;;;10.02;4.60;;;4.60;74.70;;;;;;4981832;28;20054;-73
2022/02/13 08:45:21;;;;;;;7.05;3.78;;;4.70;74.80;;;;;;4985090;28;20026;-73
2022/02/13 08:47:47;;;;;;;7.30;4.75;;;4.60;74.10;;;;;;4983009;28;20038;-73
2022/02/13 08:50:12;;;;;;;10.30;4.13;;;4.70;74.80;;;;;;4990926;28;20070;-73
2022/02/13 08:52:38;;;;;;;7.35;4.78;;;4.70;75.20;;;;;;4992333;28;20038;-73
2022/02/13 08:55:04;;;;;;;8.13;4.40;;;4.80;74.40;;;;;;4983088;28;20441;-73
2022/02/13 08:57:30;;;;;;;9.15;4.97;;;4.70;73.50;;;;;;4975866;28;20042;-73
2022/02/13 08:59:56;;;;;;;6.50;3.80;;;4.60;74.80;;;;;;4978200;28;20035;-73
2022/02/13 09:02:21;;;;;;;15.57;7.05;;;4.50;75.40;;;;;;4977790;28;20088;-73
2022/02/13 09:04:47;;;;;;;10.35;5.45;;;4.60;75.40;;;;;;4985591;28;20030;-73
2022/02/13 09:07:13;;;;;;;7.82;4.00;;;4.80;75.40;;;;;;4984129;28;20554;-73
2022/02/13 09:09:43;;;;;;;9.38;4.30;;;4.80;74.70;;;;;;4986667;28;20057;-73
2022/02/13 09:12:09;;;;;;;8.13;4.55;;;5.00;74.40;;;;;;4992705;28;20035;-73
2022/02/13 09:14:35;;;;;;;9.80;5.35;;;5.10;73.30;;;;;;4983536;28;20034;-73
2022/02/13 09:17:00;;;;;;;8.23;3.83;;;5.40;72.70;;;;;;4983166;28;20035;-73
2022/02/13 09:19:28;;;;;;;17.73;8.15;;;6.00;70.30;;;;;;4977766;28;20669;-74
2022/02/13 09:21:54;;;;;;;7.30;4.15;;;6.50;69.00;;;;;;4988988;28;20026;-74
2022/02/13 09:24:21;;;;;;;8.32;4.38;;;6.60;68.60;;;;;;4987699;28;20149;-73
2022/02/13 09:26:47;;;;;;;6.20;3.47;;;6.60;67.20;;;;;;4977145;28;20034;-76
2022/02/13 09:29:13;;;;;;;9.25;4.78;;;6.50;68.10;;;;;;4984910;28;20125;-75
2022/02/13 09:31:39;;;;;;;8.60;4.50;;;6.50;69.50;;;;;;4983010;28;20113;-74
2022/02/13 09:34:04;;;;;;;5.50;3.42;;;6.60;69.20;;;;;;4982200;28;20120;-74
2022/02/13 09:36:30;;;;;;;6.05;3.78;;;6.80;67.90;;;;;;4979283;28;20053;-74
2022/02/13 09:38:56;;;;;;;16.77;8.07;;;7.20;66.40;;;;;;4978791;28;20034;-74
2022/02/13 09:41:22;;;;;;;11.82;5.28;;;7.90;63.30;;;;;;4978665;28;20034;-74
2022/02/13 09:43:48;;;;;;;7.82;3.75;;;8.90;60.80;;;;;;4978832;28;20038;-74
2022/02/13 09:46:16;;;;;;;17.02;6.28;;;9.80;55.70;;;;;;4979683;28;20030;-75
2022/02/13 09:48:43;;;;;;;4.60;3.42;;;10.30;54.00;;;;;;4977931;28;20080;-74
2022/02/13 09:51:10;;;;;;;7.53;4.35;;;10.70;52.90;;;;;;4983097;28;20022;-75
2022/02/13 09:53:37;;;;;;;6.28;3.83;;;10.80;52.10;;;;;;4987717;28;20042;-74
2022/02/13 09:56:04;;;;;;;8.35;4.45;;;11.00;51.80;;;;;;4974305;28;20034;-74
2022/02/13 09:58:31;;;;;;;22.77;9.82;;;10.90;51.30;;;;;;4983419;28;20053;-74
2022/02/13 10:01:02;;;;;;;8.05;5.05;;;11.30;52.00;;;;;;4984078;28;20018;-74
2022/02/13 10:03:30;;;;;;;9.20;3.80;;;11.50;50.00;;;;;;4987406;28;20034;-74
2022/02/13 10:06:00;;;;;;;8.68;4.25;;;11.30;50.60;;;;;;4986596;28;20018;-74
2022/02/13 10:08:40;;;;;;;9.02;4.03;;;11.30;50.50;;;;;;4988677;28;20038;-74
2022/02/13 10:11:17;;;;;;;7.38;3.88;;;11.10;50.90;;;;;;4983366;28;20485;-74
2022/02/13 10:14:05;;;;;;;13.65;5.85;;;11.00;51.00;;;;;;4988771;28;20168;-74
2022/02/13 10:16:34;;;;;;;9.00;4.10;;;11.20;50.40;;;;;;4984098;28;21022;-74
2022/02/13 10:19:05;;;;;;;7.63;4.10;;;11.10;50.10;;;;;;4982602;28;20138;-74
2022/02/13 10:21:40;;;;;;;5.68;3.60;;;11.00;50.80;;;;;;4983530;28;20048;-74
2022/02/13 10:24:15;;;;;;;6.53;3.72;;;10.90;50.60;;;;;;4989230;28;20101;-74
2022/02/13 10:26:45;;;;;;;6.10;4.25;;;11.00;51.30;;;;;;4984987;28;20038;-74
2022/02/13 10:29:12;;;;;;;6.28;3.97;;;11.10;49.80;;;;;;4985045;28;20049;-74
2022/02/13 10:31:39;;;;;;;6.88;4.05;;;11.20;50.10;;;;;;4984090;28;20031;-74
2022/02/13 10:34:05;;;;;;;9.63;5.25;;;11.20;51.00;;;;;;4984468;28;20031;-74
2022/02/13 10:36:42;;;;;;;6.15;3.85;;;11.40;50.00;;;;;;4980481;28;20061;-74
2022/02/13 10:39:26;;;;;;;5.57;3.85;;;11.70;50.50;;;;;;4984532;28;20034;-74
2022/02/13 10:41:53;;;;;;;6.82;4.03;;;12.00;48.70;;;;;;4979888;28;20467;-74
2022/02/13 10:44:27;;;;;;;5.97;3.47;;;12.70;47.00;;;;;;4982503;28;20034;-74
2022/02/13 10:46:54;;;;;;;6.90;3.58;;;12.80;45.60;;;;;;4983019;28;20719;-74
2022/02/13 10:49:20;;;;;;;6.63;3.80;;;12.80;45.60;;;;;;4976132;28;20042;-74
2022/02/13 10:51:46;;;;;;;5.75;3.58;;;13.00;46.20;;;;;;4979479;28;20053;-74
2022/02/13 10:54:12;;;;;;;5.93;3.10;;;13.20;43.60;;;;;;4985595;28;20030;-75
2022/02/13 10:56:38;;;;;;;7.18;3.97;;;13.40;43.40;;;;;;4985236;28;20684;-74
2022/02/13 10:59:14;;;;;;;4.15;3.33;;;13.20;42.90;;;;;;4979462;28;20038;-74
2022/02/13 11:01:48;;;;;;;6.55;3.50;;;12.90;44.90;;;;;;4980248;28;20038;-74
2022/02/13 11:04:14;;;;;;;6.30;3.92;;;12.80;44.90;;;;;;4989220;28;20116;-74
2022/02/13 11:06:40;;;;;;;4.60;2.95;;;12.80;44.90;;;;;;4985146;28;20163;-74
2022/02/13 11:09:25;;;;;;;4.38;3.15;;;12.60;45.90;;;;;;4977572;28;20489;-74
2022/02/13 11:11:52;;;;;;;6.20;3.40;;;12.20;46.40;;;;;;4986813;28;20683;-75
2022/02/13 11:14:28;;;;;;;4.75;3.25;;;11.70;48.40;;;;;;4982899;28;20027;-74
2022/02/13 11:16:55;;;;;;;4.30;2.97;;;11.30;48.30;;;;;;4977337;28;20038;-74
2022/02/13 11:19:22;;;;;;;5.30;3.25;;;11.00;47.40;;;;;;4982420;28;20042;-74
2022/02/13 11:21:48;;;;;;;6.22;3.25;;;10.60;48.70;;;;;;4987795;28;20034;-74
2022/02/13 11:24:25;;;;;;;5.07;3.28;;;10.40;50.70;;;;;;4987338;28;20033;-74
2022/02/13 11:26:51;;;;;;;5.80;3.22;;;10.50;50.10;;;;;;4978735;28;20117;-74
2022/02/13 11:29:17;;;;;;;4.32;2.90;;;10.40;50.40;;;;;;4986316;28;20037;-74
2022/02/13 11:31:52;;;;;;;4.82;3.13;;;10.10;50.00;;;;;;4986703;28;20077;-74
2022/02/13 11:34:26;;;;;;;6.28;3.25;;;10.00;52.00;;;;;;4986071;28;20034;-74
2022/02/13 11:37:06;;;;;;;4.57;2.50;;;10.00;52.60;;;;;;4983142;28;20041;-74
2022/02/13 11:39:48;;;;;;;3.97;2.97;;;10.10;52.40;;;;;;4991776;28;20045;-74
2022/02/13 11:42:21;;;;;;;5.40;3.20;;;10.10;50.80;;;;;;4983246;28;20053;-75
2022/02/13 11:44:57;;;;;;;5.32;3.10;;;10.10;51.50;;;;;;4986244;28;20038;-74
2022/02/13 11:47:32;;;;;;;;;;;9.90;50.80;;;;;;4988671;28;20036;-74
2022/02/13 11:50:03;;;;;;;6.88;3.78;;;9.80;50.40;;;;;;4989331;28;19917;-75
2022/02/13 11:52:30;;;;;;;5.57;2.63;;;9.70;50.70;;;;;;4984969;28;20316;-74
2022/02/13 11:55:01;;;;;;;4.32;2.97;;;9.50;51.60;;;;;;4986231;28;20245;-73
2022/02/13 11:57:30;;;;;;;3.95;2.63;;;9.50;52.20;;;;;;4990669;28;20039;-74
2022/02/13 11:59:55;;;;;;;5.18;2.95;;;9.60;51.10;;;;;;4978830;28;20747;-74
2022/02/13 12:02:30;;;;;;;5.18;3.05;;;9.60;51.30;;;;;;4987778;28;20025;-74
2022/02/13 12:05:17;;;;;;;8.10;3.15;;;9.60;52.10;;;;;;4989612;28;20100;-74
2022/02/13 12:07:43;;;;;;;4.18;2.83;;;9.60;51.60;;;;;;4985911;28;20062;-73
2022/02/13 12:10:30;;;;;;;5.15;3.00;;;9.40;51.70;;;;;;4986873;28;20483;-74
2022/02/13 12:13:16;;;;;;;4.43;2.70;;;9.40;50.60;;;;;;4985442;28;20026;-74
2022/02/13 12:15:53;;;;;;;6.97;2.72;;;9.30;51.00;;;;;;4978278;28;20120;-74
2022/02/13 12:18:19;;;;;;;5.22;2.80;;;9.30;52.10;;;;;;4986353;28;20039;-74
2022/02/13 12:20:46;;;;;;;6.75;3.15;;;9.50;51.80;;;;;;4978551;28;20090;-74
2022/02/13 12:23:17;;;;;;;4.50;3.10;;;9.50;51.00;;;;;;4985082;28;20033;-74
2022/02/13 12:25:48;;;;;;;7.25;3.15;;;9.60;50.20;;;;;;4981635;28;20049;-74
2022/02/13 12:28:17;;;;;;;8.85;2.88;;;9.40;51.80;;;;;;4976704;28;20030;-74
2022/02/13 12:30:55;;;;;;;7.97;3.13;;;9.50;52.10;;;;;;4984564;28;20042;-74
2022/02/13 12:33:25;;;;;;;4.38;2.85;;;9.30;52.00;;;;;;4982486;28;20027;-74
2022/02/13 12:35:52;;;;;;;5.70;2.97;;;9.30;51.20;;;;;;4989883;28;20054;-74
2022/02/13 12:38:18;;;;;;;6.00;3.30;;;9.40;52.50;;;;;;4982695;28;20085;-74
2022/02/13 12:40:45;;;;;;;3.97;2.30;;;9.40;49.30;;;;;;4980720;28;20042;-74
2022/02/13 12:43:16;;;;;;;5.13;2.63;;;9.20;48.90;;;;;;4979168;28;20034;-74
2022/02/13 12:45:47;;;;;;;5.15;2.80;;;9.10;50.70;;;;;;4985708;28;20390;-74
2022/02/13 12:48:15;;;;;;;6.43;2.90;;;9.20;50.70;;;;;;4981066;28;20038;-74
2022/02/13 12:50:45;;;;;;;6.55;2.80;;;9.30;51.30;;;;;;4989334;28;20048;-74
2022/02/13 12:53:13;;;;;;;4.80;2.33;;;9.50;50.60;;;;;;4982479;28;20142;-74